createdAt,value
2023-04-02T00:00:16.448Z,9.50
2023-04-02T00:02:55.083Z,9.50
2023-04-02T00:05:31.042Z,9.50
2023-04-02T00:08:03.282Z,9.50
2023-04-02T00:10:47.548Z,9.50
2023-04-02T00:13:17.665Z,9.50
2023-04-02T00:15:49.018Z,9.50
2023-04-02T00:18:21.766Z,9.50
2023-04-02T00:21:00.851Z,9.50
2023-04-02T00:23:28.573Z,9.40
2023-04-02T00:25:55.850Z,9.50
2023-04-02T00:28:24.132Z,9.40
2023-04-02T00:30:58.291Z,9.40
2023-04-02T00:33:31.596Z,9.40
2023-04-02T00:35:58.969Z,9.40
2023-04-02T00:38:35.727Z,9.40
2023-04-02T00:41:06.178Z,9.50
2023-04-02T00:43:38.359Z,9.40
2023-04-02T00:46:14.453Z,9.40
2023-04-02T00:48:58.820Z,9.40
2023-04-02T00:51:38.738Z,9.40
2023-04-02T00:54:10.480Z,9.40
2023-04-02T00:56:42.402Z,9.40
2023-04-02T00:59:30.738Z,9.30
2023-04-02T01:02:17.281Z,9.30
2023-04-02T01:05:00.131Z,9.30
2023-04-02T01:07:50.613Z,9.30
2023-04-02T01:10:33.601Z,9.30
2023-04-02T01:13:23.918Z,9.30
2023-04-02T01:16:02.816Z,9.30
2023-04-02T01:18:51.791Z,9.20
2023-04-02T01:21:30.910Z,9.20
2023-04-02T01:24:16.550Z,9.10
2023-04-02T01:27:13.671Z,9.10
2023-04-02T01:29:48.508Z,9.10
2023-04-02T01:32:19.723Z,9.00
2023-04-02T01:34:48.971Z,9.00
2023-04-02T01:37:44.766Z,9.00
2023-04-02T01:40:36.170Z,9.00
2023-04-02T01:43:36.188Z,9.00
2023-04-02T01:46:25.776Z,9.00
2023-04-02T01:48:54.733Z,9.00
2023-04-02T01:51:35.337Z,9.00
2023-04-02T01:54:06.239Z,9.00
2023-04-02T01:56:35.553Z,9.00
2023-04-02T01:59:05.804Z,9.00
2023-04-02T02:01:43.303Z,8.90
2023-04-02T02:04:13.829Z,9.10
2023-04-02T02:06:41.563Z,8.90
2023-04-02T02:09:17.630Z,8.80
2023-04-02T02:11:44.985Z,8.80
2023-04-02T02:14:17.132Z,8.80
2023-04-02T02:16:46.664Z,8.80
2023-04-02T02:19:26.311Z,8.80
2023-04-02T02:21:56.965Z,8.70
2023-04-02T02:24:28.553Z,8.70
2023-04-02T02:27:08.932Z,8.70
2023-04-02T02:29:40.970Z,8.70
2023-04-02T02:32:10.961Z,8.70
2023-04-02T02:34:52.359Z,8.60
2023-04-02T02:37:27.359Z,8.60
2023-04-02T02:39:58.654Z,8.60
2023-04-02T02:42:30.580Z,8.60
2023-04-02T02:44:58.983Z,8.60
2023-04-02T02:47:29.401Z,8.60
2023-04-02T02:50:03.400Z,8.60
2023-04-02T02:52:36.865Z,8.60
2023-04-02T02:55:10.737Z,8.50
2023-04-02T02:58:13.579Z,8.50
2023-04-02T03:00:54.433Z,8.50
2023-04-02T03:03:27.426Z,8.40
2023-04-02T03:06:03.233Z,8.40
2023-04-02T03:08:40.337Z,8.40
2023-04-02T03:11:48.463Z,8.30
2023-04-02T03:14:30.281Z,8.30
2023-04-02T03:17:10.786Z,8.20
2023-04-02T03:19:51.022Z,8.20
2023-04-02T03:22:32.352Z,8.10
2023-04-02T03:25:09.788Z,8.10
2023-04-02T03:27:42.053Z,8.10
2023-04-02T03:30:09.392Z,8.10
2023-04-02T03:32:40.532Z,8.10
2023-04-02T03:35:34.559Z,8.10
2023-04-02T03:38:16.509Z,8.10
2023-04-02T03:40:58.622Z,8.00
2023-04-02T03:43:30.595Z,8.00
2023-04-02T03:46:07.465Z,8.00
2023-04-02T03:48:42.063Z,8.00
2023-04-02T03:51:21.662Z,8.00
2023-04-02T03:53:49.307Z,8.00
2023-04-02T03:56:39.651Z,7.90
2023-04-02T03:59:22.044Z,7.90
2023-04-02T04:01:57.182Z,7.90
2023-04-02T04:04:28.511Z,7.90
2023-04-02T04:06:57.353Z,7.90
2023-04-02T04:09:35.066Z,7.90
2023-04-02T04:12:42.315Z,7.80
2023-04-02T04:15:30.216Z,7.80
2023-04-02T04:18:12.246Z,7.80
2023-04-02T04:20:57.184Z,7.70
2023-04-02T04:23:37.046Z,7.70
2023-04-02T04:26:25.886Z,7.70
2023-04-02T04:29:26.677Z,7.70
2023-04-02T04:31:58.778Z,7.70
2023-04-02T04:34:42.230Z,7.60
2023-04-02T04:37:33.794Z,7.50
2023-04-02T04:40:18.802Z,7.40
2023-04-02T04:42:49.533Z,7.30
2023-04-02T04:45:59.554Z,7.30
2023-04-02T04:48:48.755Z,7.20
2023-04-02T04:51:33.873Z,7.10
2023-04-02T04:54:01.458Z,7.10
2023-04-02T04:56:32.757Z,7.00
2023-04-02T04:59:29.568Z,7.00
2023-04-02T05:02:23.742Z,7.00
2023-04-02T05:04:52.916Z,6.90
2023-04-02T05:07:26.369Z,6.90
2023-04-02T05:10:13.276Z,6.80
2023-04-02T05:12:57.037Z,6.70
2023-04-02T05:15:42.112Z,6.80
2023-04-02T05:18:37.995Z,6.70
2023-04-02T05:21:17.090Z,6.60
2023-04-02T05:23:51.764Z,6.60
2023-04-02T05:26:37.343Z,6.50
2023-04-02T05:29:18.126Z,6.50
2023-04-02T05:32:01.893Z,6.50
2023-04-02T05:34:33.298Z,6.50
2023-04-02T05:37:00.891Z,6.50
2023-04-02T05:39:28.310Z,6.50
2023-04-02T05:42:10.753Z,6.50
2023-04-02T05:45:19.800Z,6.50
2023-04-02T05:47:51.834Z,6.50
2023-04-02T05:50:37.157Z,6.50
2023-04-02T05:53:14.150Z,6.50
2023-04-02T05:56:00.495Z,6.50
2023-04-02T05:58:40.018Z,6.40
2023-04-02T06:01:37.288Z,6.40
2023-04-02T06:04:16.810Z,6.40
2023-04-02T06:07:23.578Z,6.40
2023-04-02T06:10:06.553Z,6.30
2023-04-02T06:13:00.211Z,6.30
2023-04-02T06:15:28.613Z,6.30
2023-04-02T06:18:08.000Z,6.30
2023-04-02T06:20:35.963Z,6.30
2023-04-02T06:23:24.414Z,6.30
2023-04-02T06:26:02.009Z,6.30
2023-04-02T06:28:42.928Z,6.30
2023-04-02T06:31:37.136Z,6.30
2023-04-02T06:34:13.888Z,6.30
2023-04-02T06:36:41.542Z,6.30
2023-04-02T06:39:18.408Z,6.30
2023-04-02T06:41:46.669Z,6.40
2023-04-02T06:44:50.733Z,6.40
2023-04-02T06:47:49.012Z,6.40
2023-04-02T06:50:31.147Z,6.00
2023-04-02T06:53:05.152Z,6.30
2023-04-02T06:56:14.914Z,6.40
2023-04-02T06:58:42.317Z,6.40
2023-04-02T07:01:22.053Z,6.40
2023-04-02T07:03:49.934Z,6.30
2023-04-02T07:06:25.640Z,6.40
2023-04-02T07:08:55.472Z,6.40
2023-04-02T07:11:23.857Z,6.40
2023-04-02T07:13:53.852Z,6.50
2023-04-02T07:16:25.575Z,6.60
2023-04-02T07:19:01.240Z,6.70
2023-04-02T07:21:31.635Z,6.70
2023-04-02T07:23:58.973Z,6.80
2023-04-02T07:26:27.907Z,6.80
2023-04-02T07:28:55.824Z,6.90
2023-04-02T07:31:26.252Z,6.90
2023-04-02T07:33:55.686Z,6.90
2023-04-02T07:36:24.077Z,7.00
2023-04-02T07:38:51.217Z,7.00
2023-04-02T07:41:19.554Z,7.10
2023-04-02T07:43:47.801Z,7.20
2023-04-02T07:46:17.434Z,7.20
2023-04-02T07:48:45.454Z,7.30
2023-04-02T07:51:30.607Z,7.40
2023-04-02T07:53:57.834Z,7.70
2023-04-02T07:56:25.357Z,7.80
2023-04-02T07:58:52.794Z,7.90
2023-04-02T08:01:29.498Z,8.00
2023-04-02T08:03:57.737Z,8.20
2023-04-02T08:06:25.810Z,8.30
2023-04-02T08:08:53.568Z,8.30
2023-04-02T08:11:20.826Z,8.50
2023-04-02T08:13:48.257Z,8.70
2023-04-02T08:16:16.085Z,8.90
2023-04-02T08:18:43.414Z,9.10
2023-04-02T08:21:11.564Z,9.10
2023-04-02T08:23:38.783Z,9.20
2023-04-02T08:26:06.574Z,9.30
2023-04-02T08:28:34.244Z,9.50
2023-04-02T08:31:02.080Z,9.90
2023-04-02T08:33:29.303Z,10.30
2023-04-02T08:35:56.686Z,10.60
2023-04-02T08:38:24.030Z,11.00
2023-04-02T08:40:54.215Z,11.30
2023-04-02T08:43:30.961Z,11.50
2023-04-02T08:46:26.533Z,11.60
2023-04-02T08:48:58.600Z,11.80
2023-04-02T08:51:28.903Z,12.00
2023-04-02T08:54:18.510Z,12.60
2023-04-02T08:57:13.338Z,13.70
2023-04-02T08:59:43.049Z,13.40
2023-04-02T09:02:37.503Z,13.40
2023-04-02T09:05:07.966Z,14.10
2023-04-02T09:07:35.378Z,17.30
2023-04-02T09:10:02.624Z,20.10
2023-04-02T09:12:31.832Z,21.90
2023-04-02T09:15:11.454Z,22.70
2023-04-02T09:17:50.557Z,22.50
2023-04-02T09:20:26.618Z,21.30
2023-04-02T09:22:55.386Z,19.50
2023-04-02T09:25:29.610Z,17.90
2023-04-02T09:28:00.686Z,17.40
2023-04-02T09:30:48.920Z,17.00
2023-04-02T09:33:16.231Z,16.90
2023-04-02T09:35:49.260Z,17.10
2023-04-02T09:38:18.589Z,18.30
2023-04-02T09:40:56.973Z,19.90
2023-04-02T09:43:33.044Z,21.30
2023-04-02T09:46:26.512Z,22.10
2023-04-02T09:48:58.463Z,24.10
2023-04-02T09:51:34.683Z,24.70
2023-04-02T09:54:07.332Z,25.90
2023-04-02T09:56:37.471Z,24.50
2023-04-02T09:59:21.639Z,24.90
2023-04-02T10:01:54.960Z,24.50
2023-04-02T10:04:34.659Z,26.20
2023-04-02T10:07:03.186Z,28.20
2023-04-02T10:09:33.208Z,29.60
2023-04-02T10:12:02.355Z,31.00
2023-04-02T10:14:39.701Z,31.70
2023-04-02T10:17:30.727Z,32.20
2023-04-02T10:20:23.085Z,32.10
2023-04-02T10:22:50.810Z,31.00
2023-04-02T10:25:21.193Z,30.50
2023-04-02T10:27:56.396Z,29.90
2023-04-02T10:30:29.644Z,29.90
2023-04-02T10:33:05.486Z,31.10
2023-04-02T10:36:02.310Z,32.20
2023-04-02T10:38:51.260Z,33.00
2023-04-02T10:41:35.931Z,33.10
2023-04-02T10:44:19.007Z,33.00
2023-04-02T10:47:08.971Z,33.10
2023-04-02T10:49:41.831Z,33.30
2023-04-02T10:52:17.014Z,33.20
2023-04-02T10:54:46.873Z,33.30
2023-04-02T10:57:16.857Z,32.90
2023-04-02T10:59:49.343Z,33.50
2023-04-02T11:02:37.564Z,34.50
2023-04-02T11:05:38.147Z,35.20
2023-04-02T11:08:20.028Z,35.10
2023-04-02T11:10:56.702Z,35.20
2023-04-02T11:13:29.090Z,35.20
2023-04-02T11:15:56.539Z,35.10
2023-04-02T11:18:38.517Z,35.00
2023-04-02T11:21:29.031Z,35.10
2023-04-02T11:24:01.833Z,35.40
2023-04-02T11:26:41.085Z,35.50
2023-04-02T11:29:21.127Z,35.90
2023-04-02T11:31:51.451Z,36.40
2023-04-02T11:34:40.570Z,36.60
2023-04-02T11:37:28.770Z,36.50
2023-04-02T11:39:58.256Z,36.50
2023-04-02T11:42:29.856Z,36.50
2023-04-02T11:45:01.854Z,36.70
2023-04-02T11:47:30.415Z,36.80
2023-04-02T11:50:02.616Z,36.80
2023-04-02T11:52:37.840Z,36.70
2023-04-02T11:55:33.270Z,36.80
2023-04-02T11:58:25.877Z,36.80
2023-04-02T12:01:30.586Z,37.10
2023-04-02T12:04:28.401Z,37.40
2023-04-02T12:07:07.793Z,37.30
2023-04-02T12:09:45.466Z,37.30
2023-04-02T12:12:17.608Z,37.70
2023-04-02T12:14:48.350Z,37.80
2023-04-02T12:17:18.987Z,37.80
2023-04-02T12:19:52.415Z,37.70
2023-04-02T12:22:29.223Z,37.30
2023-04-02T12:25:05.077Z,37.20
2023-04-02T12:27:32.449Z,37.40
2023-04-02T12:30:21.805Z,37.50
2023-04-02T12:32:50.313Z,37.50
2023-04-02T12:35:34.452Z,37.70
2023-04-02T12:38:02.097Z,37.50
2023-04-02T12:40:29.322Z,37.50
2023-04-02T12:42:56.506Z,37.60
2023-04-02T12:45:29.715Z,37.30
2023-04-02T12:47:59.122Z,37.00
2023-04-02T12:50:26.615Z,36.90
2023-04-02T12:52:55.565Z,36.50
2023-04-02T12:55:25.607Z,36.10
2023-04-02T12:58:00.127Z,35.80
2023-04-02T13:00:30.136Z,35.60
2023-04-02T13:03:06.742Z,35.80
2023-04-02T13:05:36.966Z,35.80
2023-04-02T13:08:05.756Z,35.80
2023-04-02T13:10:33.333Z,35.60
2023-04-02T13:13:02.977Z,35.40
2023-04-02T13:15:32.991Z,35.00
2023-04-02T13:18:22.023Z,34.60
2023-04-02T13:21:05.520Z,34.40
2023-04-02T13:23:36.163Z,34.30
2023-04-02T13:26:19.853Z,34.50
2023-04-02T13:29:15.442Z,34.30
2023-04-02T13:31:42.756Z,34.20
2023-04-02T13:34:10.102Z,34.00
2023-04-02T13:36:37.464Z,33.60
2023-04-02T13:39:05.624Z,33.30
2023-04-02T13:41:39.136Z,32.90
2023-04-02T13:44:06.471Z,32.60
2023-04-02T13:46:34.906Z,32.30
2023-04-02T13:49:02.290Z,32.20
2023-04-02T13:51:37.392Z,32.10
2023-04-02T13:54:10.500Z,32.00
2023-04-02T13:56:38.295Z,32.00
2023-04-02T13:59:06.261Z,31.90
2023-04-02T14:01:34.487Z,31.90
2023-04-02T14:04:02.955Z,31.90
2023-04-02T14:06:54.755Z,31.80
2023-04-02T14:09:32.984Z,31.50
2023-04-02T14:12:16.067Z,31.00
2023-04-02T14:15:22.234Z,30.50
2023-04-02T14:18:26.631Z,30.30
2023-04-02T14:21:14.903Z,29.90
2023-04-02T14:24:04.105Z,29.50
2023-04-02T14:27:30.458Z,29.00
2023-04-02T14:29:57.626Z,28.80
2023-04-02T14:32:44.662Z,28.50
2023-04-02T14:35:24.117Z,28.00
2023-04-02T14:38:17.058Z,27.70
2023-04-02T14:40:58.692Z,27.50
2023-04-02T14:43:39.373Z,27.30
2023-04-02T14:46:10.290Z,27.10
2023-04-02T14:48:51.315Z,26.70
2023-04-02T14:51:34.685Z,26.50
2023-04-02T14:54:26.710Z,26.20
2023-04-02T14:56:55.413Z,25.90
2023-04-02T14:59:36.825Z,25.60
2023-04-02T15:02:12.699Z,25.30
2023-04-02T15:04:49.663Z,25.10
2023-04-02T15:07:24.252Z,24.90
2023-04-02T15:10:02.950Z,24.90
2023-04-02T15:12:35.223Z,24.80
2023-04-02T15:15:33.159Z,24.80
2023-04-02T15:18:10.929Z,24.90
2023-04-02T15:21:01.739Z,24.80
2023-04-02T15:23:31.718Z,24.50
2023-04-02T15:26:21.768Z,24.30
2023-04-02T15:28:53.443Z,24.30
2023-04-02T15:31:25.872Z,24.30
2023-04-02T15:34:18.596Z,24.20
2023-04-02T15:37:08.182Z,24.00
2023-04-02T15:39:50.674Z,23.90
2023-04-02T15:42:34.589Z,23.90
2023-04-02T15:45:12.792Z,23.90
2023-04-02T15:48:10.468Z,23.90
2023-04-02T15:50:49.666Z,23.70
2023-04-02T15:53:16.789Z,23.50
2023-04-02T15:55:43.918Z,23.30
2023-04-02T15:58:21.847Z,23.10
2023-04-02T16:01:20.873Z,22.90
2023-04-02T16:04:13.569Z,22.80
2023-04-02T16:07:03.954Z,22.70
2023-04-02T16:10:05.442Z,22.60
2023-04-02T16:12:34.731Z,22.40
2023-04-02T16:15:36.189Z,22.30
2023-04-02T16:18:15.033Z,22.10
2023-04-02T16:20:48.588Z,22.00
2023-04-02T16:23:20.469Z,21.80
2023-04-02T16:25:57.424Z,21.70
2023-04-02T16:28:31.101Z,21.50
2023-04-02T16:31:02.588Z,21.40
2023-04-02T16:33:49.018Z,21.30
2023-04-02T16:36:25.577Z,21.10
2023-04-02T16:39:24.432Z,21.10
2023-04-02T16:42:14.332Z,20.90
2023-04-02T16:44:59.483Z,20.70
2023-04-02T16:47:30.994Z,20.70
2023-04-02T16:50:11.911Z,20.60
2023-04-02T16:53:18.132Z,20.40
2023-04-02T16:56:07.787Z,20.10
2023-04-02T16:58:54.868Z,19.90
2023-04-02T17:01:40.925Z,19.80
2023-04-02T17:04:23.094Z,19.80
2023-04-02T17:06:53.886Z,19.80
2023-04-02T17:09:32.072Z,19.60
2023-04-02T17:12:14.498Z,19.20
2023-04-02T17:14:54.914Z,18.90
2023-04-02T17:17:23.264Z,18.70
2023-04-02T17:19:55.914Z,18.50
2023-04-02T17:22:23.600Z,18.30
2023-04-02T17:25:00.156Z,17.90
2023-04-02T17:27:39.385Z,17.60
2023-04-02T17:30:31.915Z,17.30
2023-04-02T17:32:59.162Z,17.10
2023-04-02T17:35:50.185Z,17.10
2023-04-02T17:38:40.313Z,17.00
2023-04-02T17:41:20.711Z,16.80
2023-04-02T17:43:56.580Z,16.60
2023-04-02T17:46:42.088Z,16.30
2023-04-02T17:49:24.106Z,16.00
2023-04-02T17:52:00.318Z,15.70
2023-04-02T17:54:35.844Z,15.40
2023-04-02T17:57:21.948Z,15.10
2023-04-02T18:00:00.862Z,14.50
2023-04-02T18:03:02.052Z,14.20
2023-04-02T18:05:32.391Z,13.90
2023-04-02T18:08:26.299Z,13.60
2023-04-02T18:11:13.112Z,13.40
2023-04-02T18:13:53.644Z,13.10
2023-04-02T18:16:32.244Z,12.80
2023-04-02T18:19:31.682Z,12.60
2023-04-02T18:22:15.353Z,12.30
2023-04-02T18:25:02.793Z,12.00
2023-04-02T18:27:43.426Z,11.80
2023-04-02T18:30:22.518Z,11.60
2023-04-02T18:33:08.694Z,11.40
2023-04-02T18:35:59.653Z,11.30
2023-04-02T18:38:42.685Z,11.20
2023-04-02T18:41:37.117Z,11.10
2023-04-02T18:44:36.522Z,11.00
2023-04-02T18:47:14.393Z,10.90
2023-04-02T18:49:49.760Z,10.80
2023-04-02T18:52:18.732Z,10.80
2023-04-02T18:54:51.339Z,10.70
2023-04-02T18:57:23.383Z,10.60
2023-04-02T19:00:30.010Z,10.50
2023-04-02T19:03:03.959Z,10.40
2023-04-02T19:05:40.752Z,10.40
2023-04-02T19:08:16.926Z,10.30
2023-04-02T19:10:46.219Z,10.30
2023-04-02T19:13:16.206Z,10.30
2023-04-02T19:16:01.277Z,10.30
2023-04-02T19:18:50.155Z,10.30
2023-04-02T19:21:37.617Z,10.30
2023-04-02T19:24:49.176Z,10.30
2023-04-02T19:28:01.969Z,10.20
2023-04-02T19:30:42.410Z,10.20
2023-04-02T19:33:37.277Z,10.10
2023-04-02T19:36:30.507Z,10.10
2023-04-02T19:39:04.994Z,10.00
2023-04-02T19:41:37.994Z,9.90
2023-04-02T19:44:11.269Z,9.80
2023-04-02T19:46:39.790Z,9.70
2023-04-02T19:49:16.686Z,9.80
2023-04-02T19:51:44.071Z,9.70
2023-04-02T19:54:12.748Z,9.70
2023-04-02T19:56:42.238Z,9.60
2023-04-02T19:59:18.166Z,9.60
2023-04-02T20:01:46.914Z,9.60
2023-04-02T20:04:14.987Z,9.50
2023-04-02T20:06:43.206Z,9.50
2023-04-02T20:09:10.626Z,9.40
2023-04-02T20:11:38.748Z,9.40
2023-04-02T20:14:08.635Z,9.40
2023-04-02T20:16:36.931Z,9.30
2023-04-02T20:19:04.189Z,9.30
2023-04-02T20:21:37.911Z,9.30
2023-04-02T20:24:06.945Z,9.30
2023-04-02T20:26:35.866Z,9.30
2023-04-02T20:29:03.320Z,9.30
2023-04-02T20:31:31.052Z,9.30
2023-04-02T20:33:59.083Z,9.20
2023-04-02T20:36:26.461Z,9.20
2023-04-02T20:38:53.752Z,9.20
2023-04-02T20:41:21.834Z,9.20
2023-04-02T20:43:49.870Z,9.20
2023-04-02T20:46:17.363Z,9.10
2023-04-02T20:48:45.185Z,9.10
2023-04-02T20:51:15.289Z,9.10
2023-04-02T20:53:43.088Z,9.10
2023-04-02T20:56:15.657Z,9.10
2023-04-02T20:58:43.547Z,9.00
2023-04-02T21:01:23.656Z,9.00
2023-04-02T21:03:55.983Z,9.00
2023-04-02T21:06:25.868Z,9.00
2023-04-02T21:08:53.483Z,8.90
2023-04-02T21:11:22.005Z,8.90
2023-04-02T21:13:50.496Z,9.00
2023-04-02T21:16:21.809Z,8.90
2023-04-02T21:18:51.285Z,8.90
2023-04-02T21:21:19.772Z,8.90
2023-04-02T21:23:47.342Z,8.90
2023-04-02T21:26:16.738Z,8.80
2023-04-02T21:28:47.054Z,8.80
2023-04-02T21:31:19.869Z,8.80
2023-04-02T21:33:50.225Z,8.80
2023-04-02T21:36:29.907Z,8.70
2023-04-02T21:39:03.166Z,8.70
2023-04-02T21:41:35.765Z,8.70
2023-04-02T21:44:04.674Z,8.70
2023-04-02T21:46:36.033Z,8.70
2023-04-02T21:49:04.352Z,8.70
2023-04-02T21:51:36.680Z,8.70
2023-04-02T21:54:04.525Z,8.60
2023-04-02T21:56:34.514Z,8.60
2023-04-02T21:59:02.534Z,8.60
2023-04-02T22:01:32.671Z,8.60
2023-04-02T22:04:02.780Z,8.60
2023-04-02T22:06:32.873Z,8.60
2023-04-02T22:09:03.268Z,8.60
2023-04-02T22:11:33.793Z,8.50
2023-04-02T22:14:03.259Z,8.50
2023-04-02T22:16:31.828Z,8.40
2023-04-02T22:19:01.847Z,8.40
2023-04-02T22:21:31.050Z,8.30
2023-04-02T22:24:03.810Z,8.30
2023-04-02T22:26:32.292Z,8.20
2023-04-02T22:29:00.292Z,8.10
2023-04-02T22:31:29.551Z,8.10
2023-04-02T22:33:57.914Z,8.10
2023-04-02T22:36:26.300Z,8.00
2023-04-02T22:38:53.800Z,8.00
2023-04-02T22:41:27.486Z,7.90
2023-04-02T22:43:56.647Z,7.90
2023-04-02T22:46:25.947Z,7.80
2023-04-02T22:48:54.423Z,7.80
2023-04-02T22:51:23.376Z,7.80
2023-04-02T22:53:53.031Z,7.80
2023-04-02T22:56:23.476Z,7.70
2023-04-02T22:58:51.008Z,7.70
2023-04-02T23:01:30.059Z,7.70
2023-04-02T23:03:57.666Z,7.60
2023-04-02T23:06:25.696Z,7.60
2023-04-02T23:08:53.081Z,7.50
2023-04-02T23:11:23.030Z,7.50
2023-04-02T23:13:52.576Z,7.50
2023-04-02T23:16:20.487Z,7.40
2023-04-02T23:18:48.588Z,7.40
2023-04-02T23:21:17.641Z,7.40
2023-04-02T23:23:45.358Z,7.40
2023-04-02T23:26:16.303Z,7.40
2023-04-02T23:28:44.405Z,7.40
2023-04-02T23:31:14.628Z,7.40
2023-04-02T23:33:42.401Z,7.30
2023-04-02T23:36:31.365Z,7.30
2023-04-02T23:39:04.618Z,7.30
2023-04-02T23:41:32.190Z,7.20
2023-04-02T23:43:59.740Z,7.20
2023-04-02T23:46:27.605Z,7.20
2023-04-02T23:48:55.590Z,7.20
2023-04-02T23:51:23.764Z,7.20
2023-04-02T23:53:52.269Z,7.10
2023-04-02T23:56:20.719Z,7.10
2023-04-02T23:58:48.453Z,7.10
